CheckWX is a tool to help pilots better visualize weather data.  It is not intended as a substitute for an official pre-flight weather briefing.

18:39:36 UTC

KOXV METAR
Knoxville Municipal Airport
Knoxville, Iowa, USA
Current

25 mins ago

KOXV 261815Z AUTO 17008KT 140V200 2SM HZ CLR 10/M04 A3039 RMK AO2
Observed
Mar-26 @ 18:15 UTC
Wind
  • 170° at 8 KTS
Visibility
2 SM
Flight Rules
IFR
Conditions
Haze
Cloud Levels
  • Clear skies
Temperature
10°C / 50°F
Dewpoint
-4°C / 25°F
Humidity
37%
Altimeter
30.39" Hg
Pressure
1029.11 hPa
Previous

45 mins ago

KOXV 261755Z AUTO 14008KT 10SM CLR 10/M05 A3040 RMK AO2
Observed
Mar-26 @ 17:55 UTC
Wind
  • 140° at 8 KTS
Visibility
10 SM
Flight Rules
VFR
Cloud Levels
  • Clear skies
Temperature
10°C / 50°F
Dewpoint
-5°C / 23°F
Humidity
35%
Altimeter
30.4" Hg
Pressure
1029.41 hPa
Previous

1 hour ago

KOXV 261735Z AUTO 21009G15KT 10SM CLR 10/M04 A3040 RMK AO2
Observed
Mar-26 @ 17:35 UTC
Wind
  • 210° at 9 KTS
  • Gusting to 15 KTS
Visibility
10 SM
Flight Rules
VFR
Cloud Levels
  • Clear skies
Temperature
10°C / 50°F
Dewpoint
-4°C / 25°F
Humidity
37%
Altimeter
30.4" Hg
Pressure
1029.41 hPa